Detall de PIREP

Printer-friendly versionPDF version

[2017/04/07 20:58:00]
Flight IATA:CT0001
Pilot Number:026
Company ICAO:CAT
Aircraft Type:F50/A
PAX:50
Aircraft Registration:PAOB
Departing Airport: LEGE
Destination Airport: LEMH
Alternate Airport:LEPA
Online: VATSIM
Route:BGR A67 SARGO
Flight Level:F130
No Slew and time accel
No pause
Crash detect
Detect pilot in Cockpit between each 30 and 45 minutes
20:58 Zero fuel Weight: 39184 Lbs, Fuel Weight: 2998 Lbs
20:58 VATSIM:LEGE 072030Z VRB02KT CAVOK 11/06 Q1021
20:58 VATSIM:LEMH 072030Z 03004KT CAVOK 11/10 Q1021
20:58 Route CT0001
21:09 Parking Brakes off
21:16 Take-off
21:16 Take off Weight: 42065 Lbs
21:16 Wind: 259º @ 000 Knots Heading: 194º
21:16 POS N41º 54´ 12´´ E002º 45´ 41´´
21:16 Gear Up: 116 Knots
21:16 Flaps:2 at 116 Knots
21:17 Flaps:1 at 135 Knots
21:18 Flaps:0 at 144 Knots
21:27 TOC
21:27 Fuel Weight: 2449 Lb
21:31 Wind:295º@002 Knots Heading: 148º Ground Speed: 271 Knots Altitude 13638 ft
21:42 TOD
21:42 Fuel Weight: 1943 Lb
21:46 Wind:039º@003 Knots Heading: 154º Ground Speed: 247 Knots Altitude 10305 ft
22:01 Wind:059º@005 Knots Heading: 166º Ground Speed: 145 Knots Altitude 3090 ft
22:07 Flaps:1 at 114 Knots
22:07 Flaps:2 at 124 Knots
22:08 Gear Down: 136 Knots
22:10 Flaps:3 at 107 Knots
22:11 Flaps:4 at 108 Knots
22:12 Flaps:5 at 108 Knots
22:13 TouchDown:Rate -244 ft/min Speed: 88 Knots
22:13 VATSIM:LEMH 072200Z 03004KT CAVOK 11/10 Q1021
22:13 Land
22:13 Wind:031º@004 Knots
22:13 Heading: 007º
22:13 Flight Duration: 00:57
22:13 Landing Weight: 40531 Lbs
22:13 POS N39º 51´ 33´´ E004º 13´ 04´´
22:16 Parking brakes on
22:16 Block to Block Duration: 01:07
22:16 Final Fuel: 1318 Lbls
22:16 Spent Fuel: 1679 Lbls
22:16 Flight Length: 196 NM
22:16 TOD Land Length: 97 NM

Exportar CSV

Powered by Drupal - Modified by Danger4k